createdAt,value
2024-04-06T00:02:28.324Z,13.27
2024-04-06T00:17:39.238Z,13.08
2024-04-06T00:32:50.283Z,12.62
2024-04-06T00:48:01.753Z,12.14
2024-04-06T01:03:13.284Z,11.81
2024-04-06T01:18:24.716Z,11.6
2024-04-06T01:33:36.390Z,11.39
2024-04-06T01:48:48.185Z,11.2
2024-04-06T02:03:59.667Z,11.14
2024-04-06T02:19:10.816Z,11.17
2024-04-06T02:34:22.018Z,11.14
2024-04-06T02:49:33.376Z,11.12
2024-04-06T03:04:44.255Z,11.05
2024-04-06T03:19:55.091Z,11.02
2024-04-06T03:35:06.514Z,11.05
2024-04-06T03:50:17.833Z,11.01
2024-04-06T04:05:29.228Z,10.92
2024-04-06T04:20:40.611Z,10.68
2024-04-06T04:35:52.396Z,10.53
2024-04-06T05:06:14.400Z,10.54
2024-04-06T05:21:25.958Z,10.93
2024-04-06T05:36:37.303Z,11.6
2024-04-06T05:51:48.271Z,12.25
2024-04-06T06:06:59.473Z,12.71
2024-04-06T06:22:11.031Z,13.28
2024-04-06T06:37:22.777Z,13.9
2024-04-06T06:52:33.808Z,14.5
2024-04-06T07:07:45.481Z,15.52
2024-04-06T07:22:56.933Z,16.28
2024-04-06T07:38:08.289Z,16.46
2024-04-06T07:53:19.518Z,17.27
2024-04-06T08:08:30.414Z,17.52
2024-04-06T08:23:41.324Z,18.04
2024-04-06T08:38:52.902Z,21.01
2024-04-06T08:54:04.037Z,22.41
2024-04-06T09:09:15.566Z,24.27
2024-04-06T09:24:27.239Z,25.04
2024-04-06T09:39:38.414Z,26.74
2024-04-06T09:54:50.188Z,26.71
2024-04-06T10:10:01.314Z,25.44
2024-04-06T10:25:12.529Z,26.62
2024-04-06T10:40:24.159Z,29.85
2024-04-06T10:55:35.668Z,30.38
2024-04-06T11:10:46.638Z,31.36
2024-04-06T11:25:58.088Z,34.75
2024-04-06T11:41:09.362Z,35.68
2024-04-06T11:56:20.316Z,35.95
2024-04-06T12:11:31.540Z,36.57
2024-04-06T12:26:43.069Z,35.29
2024-04-06T12:41:54.528Z,36.47
2024-04-06T12:57:06.036Z,37
2024-04-06T13:12:17.301Z,38.95
2024-04-06T13:27:28.549Z,39.38
2024-04-06T13:42:40.000Z,40.18
2024-04-06T13:57:51.768Z,39.79
2024-04-06T14:13:02.674Z,38.09
2024-04-06T14:28:14.203Z,40.34
2024-04-06T14:43:25.754Z,39.39
2024-04-06T14:58:37.087Z,38.97
2024-04-06T15:13:48.201Z,39.45
2024-04-06T15:28:59.273Z,38.43
2024-04-06T15:44:11.080Z,36.38
2024-04-06T15:59:53.443Z,32.32
2024-04-06T16:15:36.223Z,28.08
2024-04-06T16:31:18.199Z,25.81
2024-04-06T16:47:00.139Z,24.5
2024-04-06T16:47:47.341Z,24.57
2024-04-06T17:03:29.924Z,23.94
2024-04-06T17:19:12.719Z,22.73
2024-04-06T17:34:55.356Z,21.49
2024-04-06T17:50:37.388Z,20.46
2024-04-06T18:06:19.377Z,19.71
2024-04-06T18:22:01.517Z,19.12
2024-04-06T18:37:44.287Z,18.65
2024-04-06T18:53:26.323Z,18.07
2024-04-06T19:09:09.113Z,17.56
2024-04-06T19:24:51.083Z,17.18
2024-04-06T19:40:33.900Z,16.81
2024-04-06T19:56:16.046Z,16.58
2024-04-06T20:11:58.336Z,16.39
2024-04-06T20:27:41.253Z,16.25
2024-04-06T20:43:23.408Z,16.14
2024-04-06T20:59:06.134Z,15.95
2024-04-06T21:14:48.723Z,15.74
2024-04-06T21:30:31.093Z,15.54
2024-04-06T21:46:13.641Z,15.51
2024-04-06T22:01:55.674Z,15.24
2024-04-06T22:17:37.767Z,15.06
2024-04-06T22:33:20.416Z,15.09
2024-04-06T22:49:02.464Z,15.06
2024-04-06T23:04:44.482Z,14.98
2024-04-06T23:20:26.906Z,14.82
2024-04-06T23:36:09.070Z,14.6
2024-04-06T23:51:51.334Z,14.32
